Time;durP1;ratioP1;P1;durP2;ratioP2;P2;SDS_P1;SDS_P2;PMS_P1;PMS_P2;Temp;Humidity;BMP_temperature;BMP_pressure;BME280_temperature;BME280_humidity;BME280_pressure;Samples;Min_cycle;Max_cycle;Signal;HPM_P1;HPM_P2
2023/10/14 00:01:11;;;;;;;1999.90;999.90;;;21.80;80.40;;;;;;5093884;28;20458;-74
2023/10/14 00:03:37;;;;;;;1999.90;999.90;;;21.60;81.00;;;;;;5093212;28;20036;-74
2023/10/14 00:06:07;;;;;;;1999.90;999.90;;;21.50;81.60;;;;;;5094810;28;20493;-74
2023/10/14 00:08:34;;;;;;;1999.90;999.90;;;21.60;81.90;;;;;;5094985;28;20052;-74
2023/10/14 00:11:01;;;;;;;1999.90;999.90;;;21.50;82.70;;;;;;5095193;28;20028;-73
2023/10/14 00:18:52;;;;;;;1999.90;999.90;;;21.50;86.40;;;;;;5095002;28;20044;-73
2023/10/14 00:21:18;;;;;;;1999.90;999.90;;;21.50;87.80;;;;;;5093654;28;20091;-74
2023/10/14 00:23:44;;;;;;;1999.90;999.90;;;21.60;88.00;;;;;;5094889;28;20486;-74
2023/10/14 00:26:16;;;;;;;1999.90;999.90;;;21.40;88.20;;;;;;5094543;28;20147;-74
2023/10/14 00:28:45;;;;;;;1999.90;999.90;;;21.50;89.10;;;;;;5093664;28;20032;-74
2023/10/14 00:31:14;;;;;;;1999.90;999.90;;;21.60;89.20;;;;;;5094771;28;20560;-74
2023/10/14 00:33:41;;;;;;;1999.90;999.90;;;21.60;89.70;;;;;;5094118;28;20031;-73
2023/10/14 00:36:10;;;;;;;1999.90;999.90;;;21.60;89.30;;;;;;5092949;28;20031;-73
2023/10/14 00:38:38;;;;;;;1999.90;999.90;;;21.90;89.10;;;;;;5093258;28;20043;-73
2023/10/14 00:41:03;;;;;;;1999.90;999.90;;;21.90;88.70;;;;;;5094711;28;20039;-74
2023/10/14 00:43:29;;;;;;;1999.90;999.90;;;21.90;89.50;;;;;;5093246;28;20043;-74
2023/10/14 00:45:54;;;;;;;1999.90;999.90;;;21.80;89.40;;;;;;5092779;28;20031;-74
2023/10/14 00:48:27;;;;;;;1999.90;999.90;;;21.90;89.90;;;;;;5094221;28;20054;-74
2023/10/14 00:50:57;;;;;;;1999.90;999.90;;;21.90;89.90;;;;;;5094617;28;20043;-74
2023/10/14 00:53:23;;;;;;;1999.90;999.90;;;21.90;90.00;;;;;;5092771;28;20591;-74
2023/10/14 00:58:24;;;;;;;1999.90;999.90;;;21.70;89.90;;;;;;5094357;28;20033;-74
2023/10/14 01:01:00;;;;;;;1999.90;999.90;;;21.60;89.00;;;;;;5092906;28;20039;-73
2023/10/14 01:03:27;;;;;;;1999.90;999.90;;;21.60;88.90;;;;;;5092403;28;20036;-73
2023/10/14 01:06:05;;;;;;;1999.90;999.90;;;21.60;89.20;;;;;;5094209;28;20082;-74
2023/10/14 01:08:31;;;;;;;1999.90;999.90;;;21.50;89.90;;;;;;5094361;28;20032;-74
2023/10/14 01:11:07;;;;;;;1999.90;999.90;;;21.50;90.00;;;;;;5093601;28;20039;-73
2023/10/14 01:13:34;;;;;;;1999.90;999.90;;;21.40;90.40;;;;;;5094329;28;20036;-73
2023/10/14 01:16:08;;;;;;;1999.90;999.90;;;21.40;90.40;;;;;;5094105;28;20032;-74
2023/10/14 01:18:37;;;;;;;1999.90;999.90;;;21.40;90.60;;;;;;5094293;28;20075;-74
2023/10/14 01:21:03;;;;;;;1999.90;999.90;;;21.50;90.70;;;;;;5094042;28;20031;-74
2023/10/14 01:23:29;;;;;;;1999.90;999.90;;;21.50;90.90;;;;;;5094006;28;20032;-74
2023/10/14 01:25:57;;;;;;;1999.90;999.90;;;21.40;90.90;;;;;;5093774;28;20035;-74
2023/10/14 01:28:29;;;;;;;1999.90;999.90;;;21.50;91.10;;;;;;5093952;28;20032;-74
2023/10/14 01:31:11;;;;;;;1999.90;999.90;;;21.60;91.20;;;;;;5094117;28;20024;-74
2023/10/14 01:33:37;;;;;;;1999.90;999.90;;;21.50;91.20;;;;;;5093824;28;20040;-74
2023/10/14 01:36:09;;;;;;;1999.90;999.90;;;21.50;91.60;;;;;;5092006;28;20398;-74
2023/10/14 01:38:36;;;;;;;1999.90;999.90;;;21.50;91.70;;;;;;5092252;28;20036;-74
2023/10/14 01:41:05;;;;;;;1999.90;999.90;;;21.50;91.80;;;;;;5093915;28;20029;-74
2023/10/14 01:43:31;;;;;;;1999.90;999.90;;;21.50;91.80;;;;;;5093781;28;20033;-74
2023/10/14 01:48:25;;;;;;;1999.90;999.90;;;21.40;92.10;;;;;;5097179;28;20906;-74
2023/10/14 01:50:54;;;;;;;1999.90;999.90;;;21.30;92.30;;;;;;5097154;28;20032;-74
2023/10/14 01:53:23;;;;;;;1999.90;999.90;;;21.30;92.30;;;;;;5096329;28;20738;-74
2023/10/14 01:55:52;;;;;;;1999.90;999.90;;;21.40;92.50;;;;;;5096847;28;20028;-74
2023/10/14 01:58:22;;;;;;;1999.90;999.90;;;21.20;92.40;;;;;;5097053;28;20032;-74
2023/10/14 02:00:52;;;;;;;1999.90;999.90;;;21.40;92.20;;;;;;5097065;28;20079;-73
2023/10/14 02:03:20;;;;;;;1999.90;999.90;;;21.50;92.20;;;;;;5096430;28;20036;-74
2023/10/14 02:05:46;;;;;;;1999.90;999.90;;;21.40;92.20;;;;;;5096774;28;20036;-74
2023/10/14 02:08:15;;;;;;;1999.90;999.90;;;21.40;92.50;;;;;;5096987;28;20032;-74
2023/10/14 02:10:46;;;;;;;1999.90;999.90;;;21.30;92.50;;;;;;5095537;28;20079;-73
2023/10/14 02:13:14;;;;;;;1999.90;999.90;;;21.30;92.60;;;;;;5096740;28;20028;-74
2023/10/14 02:15:39;;;;;;;1999.90;999.90;;;21.20;92.80;;;;;;5096852;28;20032;-71
2023/10/14 02:18:05;;;;;;;1999.90;999.90;;;21.20;92.80;;;;;;5095374;28;20508;-74
2023/10/14 02:20:37;;;;;;;1999.90;999.90;;;21.10;93.30;;;;;;5096527;28;20032;-74
2023/10/14 02:23:04;;;;;;;1999.90;999.90;;;21.10;93.20;;;;;;5096463;28;20028;-74
2023/10/14 02:25:33;;;;;;;1999.90;999.90;;;21.10;93.50;;;;;;5096642;28;20434;-74
2023/10/14 02:27:58;;;;;;;1999.90;999.90;;;21.00;93.50;;;;;;5096426;28;20024;-73
2023/10/14 02:30:24;;;;;;;1999.90;999.90;;;21.00;93.80;;;;;;5096896;28;20131;-74
2023/10/14 02:32:49;;;;;;;1999.90;999.90;;;20.90;94.00;;;;;;5095001;28;20036;-74
2023/10/14 02:35:15;;;;;;;1999.90;999.90;;;20.90;94.20;;;;;;5096439;28;20052;-74
2023/10/14 02:37:41;;;;;;;1999.90;999.90;;;20.90;94.30;;;;;;5096220;28;20021;-73
2023/10/14 02:40:12;;;;;;;1999.90;999.90;;;20.80;94.60;;;;;;5096460;28;20062;-74
2023/10/14 02:42:39;;;;;;;1999.90;999.90;;;20.80;94.70;;;;;;5096297;28;20533;-74
2023/10/14 02:45:12;;;;;;;1999.90;999.90;;;20.70;95.10;;;;;;5096448;28;20033;-72
2023/10/14 02:47:38;;;;;;;1999.90;999.90;;;20.70;95.10;;;;;;5094507;28;20032;-73
2023/10/14 02:50:12;;;;;;;1999.90;999.90;;;20.60;95.30;;;;;;5094513;28;20036;-74
2023/10/14 02:52:48;;;;;;;1999.90;999.90;;;20.70;95.50;;;;;;5096273;28;20122;-73
2023/10/14 02:57:46;;;;;;;1999.90;999.90;;;20.60;96.10;;;;;;5094035;28;20524;-72
2023/10/14 03:00:12;;;;;;;1999.90;999.90;;;20.60;96.30;;;;;;5096088;28;20044;-74
2023/10/14 03:02:55;;;;;;;1999.90;999.90;;;20.50;96.50;;;;;;5096063;28;20497;-74
2023/10/14 03:05:36;;;;;;;1999.90;999.90;;;20.60;96.90;;;;;;5096312;28;20119;-73
2023/10/14 03:08:12;;;;;;;1999.90;999.90;;;20.50;96.90;;;;;;5094570;28;20648;-74
2023/10/14 03:11:17;;;;;;;1999.90;999.90;;;20.40;97.20;;;;;;5094521;28;20494;-74
2023/10/14 03:13:30;;;;;;;1999.90;999.90;;;20.50;97.20;;;;;;5092366;28;20058;-73
2023/10/14 03:15:56;;;;;;;1999.90;999.90;;;20.40;97.20;;;;;;5095827;28;20032;-73
2023/10/14 03:18:30;;;;;;;1999.90;999.90;;;20.40;97.30;;;;;;5094554;28;20075;-73
2023/10/14 03:23:24;;;;;;;1999.90;999.90;;;20.30;97.60;;;;;;5095524;28;20081;-72
2023/10/14 03:25:53;;;;;;;1999.90;999.90;;;20.40;97.60;;;;;;5095648;28;20471;-73
2023/10/14 03:28:20;;;;;;;1999.90;999.90;;;20.40;97.60;;;;;;5094402;28;20466;-73
2023/10/14 03:30:54;;;;;;;1999.90;999.90;;;20.40;97.90;;;;;;5094248;28;20083;-73
2023/10/14 03:33:21;;;;;;;1999.90;999.90;;;20.30;98.40;;;;;;5095971;28;20086;-72
2023/10/14 03:36:00;;;;;;;1999.90;999.90;;;20.40;97.90;;;;;;5093779;28;20032;-73
2023/10/14 03:38:55;;;;;;;1999.90;999.90;;;20.30;98.00;;;;;;5095865;28;20463;-73
2023/10/14 03:41:20;;;;;;;1999.90;999.90;;;20.30;98.10;;;;;;5094726;28;20036;-73
2023/10/14 03:43:58;;;;;;;1999.90;999.90;;;20.30;98.40;;;;;;5094150;28;20028;-73
2023/10/14 03:46:32;;;;;;;1999.90;999.90;;;20.20;98.50;;;;;;5093988;28;20048;-73
2023/10/14 03:48:59;;;;;;;1999.90;999.90;;;20.20;98.60;;;;;;5093590;28;20032;-73
2023/10/14 03:51:25;;;;;;;1999.90;999.90;;;20.20;98.90;;;;;;5095362;28;20036;-73
2023/10/14 03:53:55;;;;;;;1999.90;999.90;;;20.20;99.10;;;;;;5093696;28;20036;-73
2023/10/14 03:56:31;;;;;;;1999.90;999.90;;;20.10;99.30;;;;;;5093548;28;20124;-73
2023/10/14 03:59:00;;;;;;;1999.90;999.90;;;20.10;99.40;;;;;;5095327;28;20040;-73
2023/10/14 04:01:43;;;;;;;1999.90;999.90;;;20.10;99.80;;;;;;5093707;28;20036;-73
2023/10/14 04:04:18;;;;;;;1999.90;999.90;;;20.10;99.40;;;;;;5118862;22;20517;-73
2023/10/14 04:12:37;;;;;;;1999.90;999.90;;;18.60;99.90;;;;;;5115733;28;20516;-73
2023/10/14 04:17:40;;;;;;;1999.90;999.90;;;17.20;99.90;;;;;;5114698;28;20123;-73
2023/10/14 04:22:38;;;;;;;1999.90;999.90;;;16.50;99.90;;;;;;5115444;28;20107;-73
2023/10/14 04:25:22;;;;;;;1999.90;999.90;;;16.30;99.90;;;;;;5096643;28;20032;-73
2023/10/14 04:30:21;;;;;;;1999.90;999.90;;;16.00;99.90;;;;;;5115556;28;20028;-73
2023/10/14 04:33:05;;;;;;;1999.90;999.90;;;15.90;99.90;;;;;;5115288;28;20063;-73
2023/10/14 04:35:32;;;;;;;1999.90;999.90;;;15.80;99.90;;;;;;5115305;28;20089;-73
2023/10/14 04:38:02;;;;;;;1999.90;999.90;;;15.80;99.90;;;;;;5096381;28;20028;-73
2023/10/14 04:43:59;;;;;;;1999.90;999.90;;;15.80;99.90;;;;;;5112256;28;20489;-73
2023/10/14 04:48:49;;;;;;;1999.90;999.90;;;15.90;99.90;;;;;;5115444;28;20028;-73
2023/10/14 04:51:15;;;;;;;1999.90;999.90;;;16.10;99.90;;;;;;5115264;28;20121;-73
2023/10/14 04:53:49;;;;;;;1999.90;999.90;;;16.10;99.90;;;;;;5115079;28;20165;-73
2023/10/14 04:56:21;;;;;;;1999.90;999.90;;;16.10;99.90;;;;;;5115055;28;20032;-73
2023/10/14 04:58:52;;;;;;;1999.90;999.90;;;16.10;99.90;;;;;;5096241;28;20032;-73
2023/10/14 05:01:18;;;;;;;1999.90;999.90;;;16.20;99.90;;;;;;5114925;28;20028;-73
2023/10/14 05:03:44;;;;;;;1999.90;999.90;;;16.20;99.90;;;;;;5114609;28;20043;-73
2023/10/14 05:08:46;;;;;;;1999.90;999.90;;;16.30;99.90;;;;;;5114923;28;20041;-73
2023/10/14 05:11:18;;;;;;;1999.90;999.90;;;16.20;99.90;;;;;;5096222;28;20024;-73
2023/10/14 05:13:46;;;;;;;1999.90;999.90;;;16.30;99.90;;;;;;5096018;28;20483;-72
2023/10/14 05:16:26;;;;;;;1999.90;999.90;;;16.40;99.90;;;;;;5114579;28;20095;-73
2023/10/14 05:19:06;;;;;;;1999.90;999.90;;;16.40;99.90;;;;;;5114840;28;20517;-73
2023/10/14 05:21:36;;;;;;;1999.90;999.90;;;16.60;99.90;;;;;;5116068;27;20060;-73
2023/10/14 05:24:03;;;;;;;1999.90;999.90;;;16.60;99.90;;;;;;5118131;28;20039;-73
2023/10/14 05:26:35;;;;;;;1999.90;999.90;;;16.60;99.90;;;;;;5099116;28;20035;-73
2023/10/14 05:29:11;;;;;;;1999.90;999.90;;;16.70;99.90;;;;;;5099855;28;20036;-73
2023/10/14 05:31:37;;;;;;;1999.90;999.90;;;16.80;99.90;;;;;;5118435;28;20034;-72
2023/10/14 05:34:04;;;;;;;1999.90;999.90;;;16.80;99.90;;;;;;5117867;28;20540;-73
2023/10/14 05:36:32;;;;;;;1999.90;999.90;;;16.80;99.90;;;;;;5117848;28;20028;-72
2023/10/14 05:38:57;;;;;;;1999.90;999.90;;;16.80;99.90;;;;;;5117732;28;20044;-73
2023/10/14 05:41:23;;;;;;;1999.90;999.90;;;16.80;99.90;;;;;;5118246;28;20025;-72
2023/10/14 05:43:51;;;;;;;1999.90;999.90;;;16.90;99.90;;;;;;5117632;28;20435;-72
2023/10/14 05:46:16;;;;;;;1999.90;999.90;;;16.90;99.90;;;;;;5117761;28;20020;-73
2023/10/14 05:48:42;;;;;;;1999.90;999.90;;;16.90;99.90;;;;;;5117127;28;20036;-73
2023/10/14 05:51:08;;;;;;;1999.90;999.90;;;16.80;99.90;;;;;;5117869;28;20066;-72
2023/10/14 05:53:33;;;;;;;1999.90;999.90;;;16.90;99.90;;;;;;5117624;28;20116;-73
2023/10/14 05:56:09;;;;;;;1999.90;999.90;;;16.90;99.90;;;;;;5117599;28;20035;-73
2023/10/14 05:58:37;;;;;;;1999.90;999.90;;;16.90;99.90;;;;;;5117816;28;20040;-73
2023/10/14 06:01:10;;;;;;;1999.90;999.90;;;17.00;99.90;;;;;;5117842;28;20024;-73
2023/10/14 06:03:43;;;;;;;1999.90;999.90;;;16.90;99.90;;;;;;5117199;28;20504;-73
2023/10/14 06:06:14;;;;;;;1999.90;999.90;;;17.00;99.90;;;;;;5117628;28;20485;-73
2023/10/14 06:08:41;;;;;;;1999.90;999.90;;;17.00;99.90;;;;;;5117756;28;20119;-73
2023/10/14 06:11:07;;;;;;;1999.90;999.90;;;17.00;99.90;;;;;;5117516;28;20493;-73
2023/10/14 06:13:36;;;;;;;1999.90;999.90;;;17.10;99.90;;;;;;5117190;28;20036;-73
2023/10/14 06:16:09;;;;;;;1999.90;999.90;;;17.20;99.90;;;;;;5117387;28;20036;-72
2023/10/14 06:18:35;;;;;;;1999.90;999.90;;;17.20;99.90;;;;;;5117438;28;20036;-73
2023/10/14 06:21:01;;;;;;;1999.90;999.90;;;17.20;99.90;;;;;;5098824;28;20558;-72
2023/10/14 06:23:27;;;;;;;1999.90;999.90;;;17.20;99.90;;;;;;5117190;28;20093;-73
2023/10/14 06:25:54;;;;;;;1999.90;999.90;;;17.20;99.90;;;;;;5116967;28;20480;-73
2023/10/14 06:28:19;;;;;;;1999.90;999.90;;;17.20;99.90;;;;;;5117486;28;20086;-73
2023/10/14 06:30:45;;;;;;;1999.90;999.90;;;17.30;99.90;;;;;;5117492;28;20024;-73
2023/10/14 06:33:11;;;;;;;1999.90;999.90;;;17.30;99.90;;;;;;5117066;28;20036;-73
2023/10/14 06:35:42;;;;;;;1999.90;999.90;;;17.30;99.90;;;;;;5117101;28;20031;-73
2023/10/14 06:38:09;;;;;;;1999.90;999.90;;;17.30;99.90;;;;;;5107790;28;20119;-73
2023/10/14 06:40:42;;;;;;;1999.90;999.90;;;17.40;99.90;;;;;;5115327;28;20119;-73
2023/10/14 06:43:09;;;;;;;1999.90;999.90;;;17.40;99.90;;;;;;5098360;28;20072;-73
2023/10/14 06:45:35;;;;;;;1999.90;999.90;;;17.40;99.90;;;;;;5117041;28;20081;-73
2023/10/14 06:48:09;;;;;;;1999.90;999.90;;;17.40;99.90;;;;;;5114592;28;20529;-73
2023/10/14 06:50:38;;;;;;;1999.90;999.90;;;17.50;99.90;;;;;;5106857;28;20051;-73
2023/10/14 06:53:11;;;;;;;1999.90;999.90;;;17.50;99.90;;;;;;5077803;28;20090;-72
2023/10/14 06:55:37;;;;;;;1999.90;999.90;;;17.50;99.90;;;;;;5096581;28;20516;-73
2023/10/14 06:58:08;;;;;;;1999.90;999.90;;;17.60;99.90;;;;;;5096262;28;20028;-73
2023/10/14 07:00:37;;;;;;;1999.90;999.90;;;17.50;99.90;;;;;;5096305;28;20442;-73
2023/10/14 07:03:06;;;;;;;1999.90;999.90;;;17.60;99.90;;;;;;5095456;28;20035;-73
2023/10/14 07:05:43;;;;;;;1999.90;999.90;;;17.80;99.90;;;;;;5096167;28;20119;-73
2023/10/14 07:08:09;;;;;;;1999.90;999.90;;;17.80;99.90;;;;;;5096343;28;20029;-73
2023/10/14 07:10:35;;;;;;;1999.90;999.90;;;18.00;99.90;;;;;;5096190;28;20458;-73
2023/10/14 07:13:01;;;;;;;1999.90;999.90;;;18.20;99.90;;;;;;5094910;28;20036;-73
2023/10/14 07:15:33;;;;;;;1999.90;999.90;;;18.30;99.90;;;;;;5095788;28;20060;-73
2023/10/14 07:17:59;;;;;;;1999.90;999.90;;;18.50;99.90;;;;;;5093644;28;20486;-73
2023/10/14 07:20:34;;;;;;;1999.90;999.90;;;18.70;99.90;;;;;;5109066;28;20570;-74
2023/10/14 07:23:01;;;;;;;1999.90;999.90;;;18.80;99.90;;;;;;5113911;28;20032;-73
2023/10/14 07:25:42;;;;;;;1999.90;999.90;;;19.00;99.90;;;;;;5113367;28;20040;-75
2023/10/14 07:28:14;;;;;;;1999.90;999.90;;;19.00;99.90;;;;;;5116381;28;20032;-74
2023/10/14 07:30:48;;;;;;;1999.90;999.90;;;19.00;99.90;;;;;;5116545;28;20435;-73
2023/10/14 07:33:15;;;;;;;1999.90;999.90;;;19.00;99.90;;;;;;5116453;28;20028;-72
2023/10/14 07:35:41;;;;;;;1999.90;999.90;;;18.90;99.90;;;;;;5115861;28;20085;-73
2023/10/14 07:38:06;;;;;;;1999.90;999.90;;;19.00;99.90;;;;;;5115993;28;20032;-73
2023/10/14 07:40:34;;;;;;;1999.90;999.90;;;18.90;99.90;;;;;;5116129;28;20481;-72
2023/10/14 07:43:07;;;;;;;1999.90;999.90;;;19.00;99.90;;;;;;5097419;28;20037;-73
2023/10/14 07:45:35;;;;;;;1999.90;999.90;;;18.90;99.90;;;;;;5115641;28;20028;-73
2023/10/14 07:48:08;;;;;;;1999.90;999.90;;;18.90;99.90;;;;;;5115847;28;20028;-73
2023/10/14 07:50:46;;;;;;;1999.90;999.90;;;19.00;99.90;;;;;;5116625;28;20105;-80
2023/10/14 07:53:14;;;;;;;1999.90;999.90;;;18.90;99.90;;;;;;5097886;28;20040;-73
2023/10/14 07:55:47;;;;;;;1999.90;999.90;;;19.00;99.90;;;;;;5115901;28;20485;-82
2023/10/14 07:58:14;;;;;;;1999.90;999.90;;;19.00;99.90;;;;;;5097304;28;20036;-73
2023/10/14 08:00:48;;;;;;;1999.90;999.90;;;19.10;99.90;;;;;;5116010;28;20051;-73
2023/10/14 08:03:20;;;;;;;1999.90;999.90;;;19.00;99.90;;;;;;5115655;28;20120;-79
2023/10/14 08:05:51;;;;;;;1999.90;999.90;;;18.90;99.90;;;;;;5115584;28;20055;-73
2023/10/14 08:08:19;;;;;;;1999.90;999.90;;;18.50;99.90;;;;;;5098890;28;20031;-75
2023/10/14 08:10:47;;;;;;;1999.90;999.90;;;17.40;99.90;;;;;;5116636;28;20040;-75
2023/10/14 08:13:13;;;;;;;1999.90;999.90;;;16.70;99.90;;;;;;5116274;28;20032;-74
2023/10/14 08:15:40;;;;;;;1999.90;999.90;;;16.20;99.90;;;;;;5115436;28;20150;-76
2023/10/14 08:18:06;;;;;;;1999.90;999.90;;;16.10;99.90;;;;;;5091834;28;20081;-76
2023/10/14 08:20:36;;;;;;;1999.90;999.90;;;16.00;99.90;;;;;;5097663;28;20072;-75
2023/10/14 08:23:09;;;;;;;1999.90;999.90;;;15.90;99.90;;;;;;5097205;28;20036;-75
2023/10/14 08:25:35;;;;;;;1999.90;999.90;;;15.90;99.90;;;;;;5115950;28;20038;-76
2023/10/14 08:28:05;;;;;;;1999.90;999.90;;;15.80;99.90;;;;;;5115482;28;20109;-75
2023/10/14 08:30:33;;;;;;;1999.90;999.90;;;15.70;99.90;;;;;;5115501;28;20024;-76
2023/10/14 08:33:01;;;;;;;1999.90;999.90;;;15.60;99.90;;;;;;5115208;28;20089;-74
2023/10/14 08:35:27;;;;;;;1999.90;999.90;;;15.60;99.90;;;;;;5096966;28;20043;-76
2023/10/14 08:37:55;;;;;;;1999.90;999.90;;;15.50;99.90;;;;;;5115540;28;20039;-79
2023/10/14 08:40:25;;;;;;;1999.90;999.90;;;15.50;99.90;;;;;;5115303;28;20043;-75
2023/10/14 08:42:55;;;;;;;1999.90;999.90;;;15.60;99.90;;;;;;5115071;28;20043;-74
2023/10/14 08:45:25;;;;;;;1999.90;999.90;;;15.60;99.90;;;;;;5115276;28;20486;-76
2023/10/14 08:47:51;;;;;;;1999.90;999.90;;;15.80;99.90;;;;;;5096589;28;20096;-76
2023/10/14 08:50:25;;;;;;;1999.90;999.90;;;15.70;99.90;;;;;;5096891;28;20035;-76
2023/10/14 08:52:53;;;;;;;1999.90;999.90;;;15.60;99.90;;;;;;5115296;28;20063;-74
2023/10/14 08:55:20;;;;;;;1999.90;999.90;;;15.60;99.90;;;;;;5098131;28;20056;-79
2023/10/14 08:57:47;;;;;;;1999.90;999.90;;;15.60;99.90;;;;;;5079536;28;20039;-76
2023/10/14 09:00:19;;;;;;;1999.90;999.90;;;15.70;99.90;;;;;;5080072;28;20036;-75
2023/10/14 09:02:53;;;;;;;1999.90;999.90;;;15.70;99.90;;;;;;5079757;28;20036;-75
2023/10/14 09:05:20;;;;;;;1999.90;999.90;;;15.70;99.90;;;;;;5079679;28;20036;-74
2023/10/14 09:07:49;;;;;;;1999.90;999.90;;;15.70;99.90;;;;;;5097463;28;20028;-74
2023/10/14 09:10:18;;;;;;;1999.90;999.90;;;15.60;99.90;;;;;;5097881;28;20094;-74
2023/10/14 09:12:59;;;;;;;1999.90;999.90;;;15.70;99.90;;;;;;5097755;28;20029;-74
2023/10/14 09:15:29;;;;;;;1999.90;999.90;;;15.60;99.90;;;;;;5106000;28;20040;-74
2023/10/14 09:17:56;;;;;;;1999.90;999.90;;;15.60;99.90;;;;;;5117790;28;20032;-75
2023/10/14 09:20:34;;;;;;;1999.90;999.90;;;15.50;99.90;;;;;;5118088;28;20036;-74
2023/10/14 09:23:23;;;;;;;1999.90;999.90;;;15.60;99.90;;;;;;5117718;28;20028;-74
2023/10/14 09:25:57;;;;;;;1999.90;999.90;;;15.80;99.90;;;;;;5097536;28;20028;-74
2023/10/14 09:28:25;;;;;;;1999.90;999.90;;;16.00;99.90;;;;;;5078889;28;20028;-75
2023/10/14 09:30:52;;;;;;;1999.90;999.90;;;16.00;99.90;;;;;;5097402;28;20103;-74
2023/10/14 09:33:29;;;;;;;1999.90;999.90;;;16.10;99.90;;;;;;5096680;28;20543;-75
2023/10/14 09:36:14;;;;;;;1999.90;999.90;;;16.10;99.90;;;;;;5079206;28;20032;-74
2023/10/14 09:38:41;;;;;;;1999.90;999.90;;;16.30;99.90;;;;;;5097854;28;20578;-73
2023/10/14 09:41:10;;;;;;;1999.90;999.90;;;16.60;99.90;;;;;;5097909;28;20855;-74
2023/10/14 09:43:42;;;;;;;1999.90;999.90;;;16.90;99.90;;;;;;5097374;28;20055;-73
2023/10/14 09:46:12;;;;;;;1999.90;999.90;;;16.80;99.90;;;;;;5097603;28;20025;-74
2023/10/14 09:48:38;;;;;;;1999.90;999.90;;;16.90;99.90;;;;;;5097587;28;20029;-74
2023/10/14 09:51:05;;;;;;;1999.90;999.90;;;16.60;99.90;;;;;;5079343;28;20049;-74
2023/10/14 09:53:36;;;;;;;1999.90;999.90;;;16.50;99.90;;;;;;5078819;28;20159;-73
2023/10/14 09:56:06;;;;;;;1999.90;999.90;;;16.30;99.90;;;;;;5097276;28;20035;-75
2023/10/14 09:58:34;;;;;;;1999.90;999.90;;;16.20;99.90;;;;;;5097299;28;20482;-74
2023/10/14 10:01:03;;;;;;;1999.90;999.90;;;16.00;99.90;;;;;;5097389;28;20482;-74
2023/10/14 10:03:34;;;;;;;1999.90;999.90;;;15.80;99.90;;;;;;5112667;22;20007;-72
2023/10/14 10:06:18;;;;;;;1999.90;999.90;;;15.40;99.90;;;;;;5116778;28;20036;-72
2023/10/14 10:08:57;;;;;;;1999.90;999.90;;;15.10;99.90;;;;;;5098123;28;20024;-73
2023/10/14 10:11:24;;;;;;;1999.90;999.90;;;14.80;99.90;;;;;;5099398;28;20039;-74
2023/10/14 10:13:51;;;;;;;1999.90;999.90;;;14.80;99.90;;;;;;5117615;28;20174;-73
2023/10/14 10:16:31;;;;;;;1999.90;999.90;;;14.70;99.90;;;;;;5098895;28;20032;-72
2023/10/14 10:18:59;;;;;;;1999.90;999.90;;;14.80;99.90;;;;;;5117777;28;20489;-72
2023/10/14 10:21:32;;;;;;;1999.90;999.90;;;14.70;99.90;;;;;;5099439;28;20107;-72
2023/10/14 10:24:23;;;;;;;1999.90;999.90;;;14.80;99.90;;;;;;5098929;28;20039;-73
2023/10/14 10:27:07;;;;;;;1999.90;999.90;;;14.80;99.90;;;;;;5098682;28;20493;-73
2023/10/14 10:29:42;;;;;;;1999.90;999.90;;;14.90;99.90;;;;;;5117604;28;20036;-72
2023/10/14 10:32:09;;;;;;;1999.90;999.90;;;15.00;99.90;;;;;;5117538;28;20032;-72
2023/10/14 10:35:06;;;;;;;1999.90;999.90;;;14.90;99.90;;;;;;5117343;28;20040;-73
2023/10/14 10:37:37;;;;;;;1999.90;999.90;;;15.00;99.90;;;;;;5117071;28;20505;-73
2023/10/14 10:40:05;;;;;;;1999.90;999.90;;;14.90;99.90;;;;;;5098579;28;20040;-71
2023/10/14 10:42:34;;;;;;;1999.90;999.90;;;14.80;99.90;;;;;;5117390;28;20036;-72
2023/10/14 10:44:59;;;;;;;1999.90;999.90;;;14.80;99.90;;;;;;5098290;28;20040;-73
2023/10/14 10:47:29;;;;;;;1999.90;999.90;;;14.80;99.90;;;;;;5117424;28;20028;-74
2023/10/14 10:49:59;;;;;;;1999.90;999.90;;;14.80;99.90;;;;;;5098852;28;20583;-72
2023/10/14 10:52:25;;;;;;;1999.90;999.90;;;14.80;99.90;;;;;;5098583;28;20036;-73
2023/10/14 10:54:52;;;;;;;1999.90;999.90;;;14.90;99.90;;;;;;5116931;28;20032;-73
2023/10/14 10:57:18;;;;;;;1999.90;999.90;;;14.80;99.90;;;;;;5116818;28;20082;-73
2023/10/14 10:59:44;;;;;;;1999.90;999.90;;;14.80;99.90;;;;;;5117158;28;20051;-73
2023/10/14 11:02:11;;;;;;;1999.90;999.90;;;14.80;99.90;;;;;;5098780;28;20043;-75
2023/10/14 11:04:39;;;;;;;1999.90;999.90;;;14.80;99.90;;;;;;5098145;28;20044;-72
2023/10/14 11:07:12;;;;;;;1999.90;999.90;;;14.80;99.90;;;;;;5122063;28;20024;-73
2023/10/14 11:09:41;;;;;;;1999.90;999.90;;;14.70;99.90;;;;;;5100057;28;20047;-73
2023/10/14 11:12:10;;;;;;;1999.90;999.90;;;14.70;99.90;;;;;;5117063;28;20032;-84
2023/10/14 11:14:36;;;;;;;1999.90;999.90;;;14.80;99.90;;;;;;5099097;28;20047;-76
2023/10/14 11:17:04;;;;;;;1999.90;999.90;;;14.80;99.90;;;;;;5116600;28;20024;-74
2023/10/14 11:19:30;;;;;;;1999.90;999.90;;;14.70;99.90;;;;;;5115408;27;20042;-75
2023/10/14 11:21:59;;;;;;;1999.90;999.90;;;14.70;99.90;;;;;;5116727;28;20032;-75
2023/10/14 11:24:26;;;;;;;1999.90;999.90;;;14.70;99.90;;;;;;5116325;28;20036;-74
2023/10/14 11:26:55;;;;;;;1999.90;999.90;;;14.70;99.90;;;;;;5118634;28;20028;-84
2023/10/14 11:29:25;;;;;;;1999.90;999.90;;;14.80;99.90;;;;;;5098931;28;20031;-75
2023/10/14 11:31:57;;;;;;;1999.90;999.90;;;14.70;99.90;;;;;;5105404;28;20028;-74
2023/10/14 11:34:23;;;;;;;1999.90;999.90;;;14.60;99.90;;;;;;5095988;28;20115;-75
2023/10/14 11:36:48;;;;;;;1999.90;999.90;;;14.70;99.90;;;;;;5096235;28;20024;-76
2023/10/14 11:39:18;;;;;;;1999.90;999.90;;;14.60;99.90;;;;;;5095974;28;20047;-74
2023/10/14 11:41:45;;;;;;;1999.90;999.90;;;14.60;99.90;;;;;;5096727;28;20031;-74
2023/10/14 11:44:17;;;;;;;1999.90;999.90;;;14.60;99.90;;;;;;5095745;28;20032;-74
2023/10/14 11:46:43;;;;;;;1999.90;999.90;;;14.50;99.90;;;;;;5096455;28;20048;-82
2023/10/14 11:49:13;;;;;;;1999.90;999.90;;;14.50;99.90;;;;;;5097381;28;20063;-78
2023/10/14 11:51:43;;;;;;;1999.90;999.90;;;14.50;99.90;;;;;;5080032;28;20538;-76
2023/10/14 11:54:12;;;;;;;1999.90;999.90;;;14.50;99.90;;;;;;5077422;28;20040;-76
2023/10/14 11:56:40;;;;;;;1999.90;999.90;;;14.50;99.90;;;;;;5095390;28;20028;-75
2023/10/14 11:59:06;;;;;;;1999.90;999.90;;;14.40;99.90;;;;;;5095954;28;20493;-75
2023/10/14 12:01:34;;;;;;;1999.90;999.90;;;14.50;99.90;;;;;;5096024;28;20074;-74
2023/10/14 12:04:00;;;;;;;1999.90;999.90;;;14.50;99.90;;;;;;5094996;28;20039;-75
2023/10/14 12:06:30;;;;;;;1999.90;999.90;;;14.60;99.90;;;;;;5095767;28;20063;-77
2023/10/14 12:08:55;;;;;;;1999.90;999.90;;;14.80;99.90;;;;;;5077456;28;20032;-76
2023/10/14 12:11:21;;;;;;;1999.90;999.90;;;14.80;99.90;;;;;;5078152;28;20040;-77
2023/10/14 12:13:48;;;;;;;1999.90;999.90;;;14.80;99.90;;;;;;5095565;28;20086;-78
2023/10/14 12:16:14;;;;;;;1999.90;999.90;;;15.00;99.90;;;;;;5095684;28;20504;-75
2023/10/14 12:18:41;;;;;;;1999.90;999.90;;;14.80;99.90;;;;;;5094948;28;20048;-75
2023/10/14 12:21:07;;;;;;;1999.90;999.90;;;14.80;99.90;;;;;;5095258;28;20044;-78
2023/10/14 12:23:33;;;;;;;1999.90;999.90;;;14.90;99.90;;;;;;5077813;28;20115;-79
2023/10/14 12:26:01;;;;;;;1999.90;999.90;;;14.60;99.90;;;;;;5097992;28;20028;-81
2023/10/14 12:28:30;;;;;;;1999.90;999.90;;;14.50;99.90;;;;;;5078175;28;20437;-78
2023/10/14 12:31:02;;;;;;;1999.90;999.90;;;14.60;99.90;;;;;;5094963;28;20103;-76
2023/10/14 12:33:31;;;;;;;1999.90;999.90;;;14.30;99.90;;;;;;5075483;28;20048;-77
2023/10/14 12:35:58;;;;;;;1999.90;999.90;;;14.40;99.90;;;;;;5075223;28;20075;-76
2023/10/14 12:38:27;;;;;;;1999.90;999.90;;;14.40;99.90;;;;;;5101648;28;20025;-76
2023/10/14 12:40:53;;;;;;;1999.90;999.90;;;14.40;99.90;;;;;;5076509;28;20089;-77
2023/10/14 12:43:27;;;;;;;1999.90;999.90;;;14.50;99.90;;;;;;5094439;28;20033;-77
2023/10/14 12:46:00;;;;;;;1999.90;999.90;;;14.60;99.90;;;;;;5076273;28;20033;-77
2023/10/14 12:48:27;;;;;;;1999.90;999.90;;;14.50;99.90;;;;;;5076503;28;20418;-76